MDT,Max TemperatureF,Mean TemperatureF,Min TemperatureF,Max Dew PointF,MeanDew PointF,Min DewpointF,Max Humidity, Mean Humidity, Min Humidity, Max Sea Level PressureIn, Mean Sea Level PressureIn, Min Sea Level PressureIn, Max VisibilityMiles, Mean VisibilityMiles, Min VisibilityMiles, Max Wind SpeedMPH, Mean Wind SpeedMPH, Max Gust SpeedMPH,PrecipitationIn, CloudCover, Events, WindDirDegrees
2012-10-1,81,62,43,36,32,26,66,37,13,30.34,30.24,30.16,10.0,10.0,10.0,21,5,26,0.00,,,57
2012-10-2,85,64,44,34,29,13,63,33,8,30.21,30.11,30.00,10.0,10.0,10.0,14,4,21,0.00,,,35
2012-10-3,86,65,44,34,26,17,54,27,8,30.10,30.05,29.97,10.0,10.0,10.0,16,6,26,0.00,,,23
2012-10-4,81,62,44,36,25,20,46,25,11,30.14,30.07,29.98,10.0,10.0,10.0,22,5,29,0.00,,Thunderstorm,337
2012-10-5,76,62,47,38,21,8,63,24,8,30.12,30.03,29.98,10.0,10.0,10.0,25,8,33,0.00,,,281
2012-10-6,68,55,42,16,6,-15,31,15,4,30.18,30.08,30.02,10.0,10.0,10.0,21,9,26,0.00,,,265
2012-10-7,67,50,32,19,8,-3,45,24,6,30.23,30.14,30.08,10.0,10.0,10.0,14,3,20,0.00,,,83
2012-10-8,69,50,30,19,11,6,45,25,9,30.19,30.11,30.01,10.0,10.0,10.0,10,4,,0.00,,,73
2012-10-9,78,56,35,26,18,12,44,25,10,30.12,30.07,30.01,10.0,10.0,10.0,15,5,22,0.00,,,17
2012-10-10,80,60,39,32,25,19,53,29,13,30.19,30.10,30.00,10.0,10.0,10.0,9,4,16,0.00,,,72
2012-10-11,81,63,45,34,28,24,51,31,12,30.15,30.08,30.00,10.0,10.0,10.0,9,5,,0.00,,,54
2012-10-12,62,56,49,51,46,36,89,72,41,30.13,30.06,29.98,10.0,9.4,2.0,26,6,33,0.34,,Rain-Thunderstorm,48
2012-10-13,56,51,46,46,43,38,88,77,61,30.31,30.17,30.09,10.0,10.0,10.0,9,4,,0.00,,Rain,55
2012-10-14,68,54,41,46,42,35,95,67,31,30.43,30.34,30.28,10.0,9.9,2.5,8,4,,0.00,,Rain,64
2012-10-15,72,56,40,44,39,36,88,59,28,30.31,30.19,30.08,10.0,10.0,10.0,12,5,,0.00,,,51
2012-10-16,74,56,38,42,36,32,85,48,21,30.14,29.96,29.78,10.0,10.0,10.0,20,3,31,0.00,,,84
2012-10-17,66,54,41,42,12,-5,47,20,6,30.15,30.03,29.87,10.0,10.0,10.0,20,12,29,0.00,,,288
2012-10-18,67,49,31,23,17,10,68,35,12,30.31,30.24,30.17,10.0,9.9,7.0,12,2,,0.00,,,52
2012-10-19,74,54,33,30,23,18,66,40,13,30.26,30.14,30.02,10.0,10.0,10.0,14,5,,0.00,0,,81
2012-10-20,78,56,33,30,24,19,73,36,11,30.06,29.95,29.81,10.0,10.0,10.0,8,3,,0.00,0,,80
2012-10-21,76,58,39,36,26,21,58,33,13,29.98,29.91,29.85,10.0,10.0,10.0,17,6,24,0.00,0,,47
2012-10-22,73,57,41,34,32,28,71,41,18,29.98,29.91,29.84,10.0,10.0,10.0,22,7,29,0.00,1,,89
2012-10-23,74,64,55,33,26,20,43,24,14,29.91,29.86,29.82,10.0,10.0,10.0,24,9,36,0.00,0,,253
2012-10-24,70,54,38,36,27,16,78,36,13,30.07,29.86,29.71,10.0,10.0,7.0,34,10,52,0.00,2,,255
2012-10-25,53,42,30,32,24,6,86,59,15,30.30,30.16,30.07,10.0,10.0,10.0,20,6,32,0.00,2,,326
2012-10-26,49,36,22,23,12,-2,72,42,13,30.47,30.34,30.24,10.0,10.0,10.0,8,3,,0.00,0,,68
2012-10-27,60,42,25,19,9,2,50,28,13,30.29,30.22,30.14,10.0,10.0,10.0,13,4,18,0.00,1,,310
2012-10-28,67,48,29,25,19,14,58,37,16,30.30,30.22,30.13,10.0,10.0,7.0,15,3,18,0.00,0,,113
2012-10-29,72,52,33,28,25,22,67,43,17,30.31,30.26,30.17,10.0,10.0,10.0,12,4,,0.00,0,,74
2012-10-30,71,52,33,27,24,20,68,41,15,30.32,30.25,30.15,10.0,10.0,10.0,14,3,,0.00,0,,65
2012-10-31,72,52,33,26,24,20,65,40,14,30.31,30.22,30.12,10.0,10.0,10.0,9,4,,0.00,0,,65